Time;durP1;ratioP1;P1;durP2;ratioP2;P2;SDS_P1;SDS_P2;PMS_P1;PMS_P2;Temp;Humidity;BMP_temperature;BMP_pressure;BME280_temperature;BME280_humidity;BME280_pressure;Samples;Min_cycle;Max_cycle;Signal;HPM_P1;HPM_P2
2022/04/28 00:00:05;;;;;;;2.75;2.50;;;;;;;21.18;35.49;103043.25;5097233;28;20697;-80
2022/04/28 00:02:33;;;;;;;3.40;2.47;;;;;;;21.21;35.28;103043.84;5079906;28;20047;-80
2022/04/28 00:05:00;;;;;;;3.30;2.45;;;;;;;21.16;35.44;103045.19;5096689;28;20036;-80
2022/04/28 00:07:25;;;;;;;3.15;2.75;;;;;;;21.18;35.30;103048.56;5047174;28;20528;-80
2022/04/28 00:09:51;;;;;;;2.50;2.30;;;;;;;21.13;35.48;103048.97;5070069;28;20036;-80
2022/04/28 00:12:17;;;;;;;3.00;2.65;;;;;;;21.12;35.40;103047.28;5096203;28;20051;-80
2022/04/28 00:14:43;;;;;;;2.40;2.20;;;;;;;21.08;35.18;103036.13;5098356;28;20094;-80
2022/04/28 00:17:09;;;;;;;4.10;2.83;;;;;;;21.12;35.47;103050.78;5095881;28;20126;-80
2022/04/28 00:19:35;;;;;;;3.45;2.70;;;;;;;20.96;35.38;103029.25;5098405;28;20036;-79
2022/04/28 00:22:01;;;;;;;2.97;2.42;;;;;;;21.12;35.44;103056.06;5092733;27;20474;-79
2022/04/28 00:24:26;;;;;;;2.50;2.28;;;;;;;20.90;35.41;103016.56;5097344;28;20059;-80
2022/04/28 00:26:52;;;;;;;2.90;2.60;;;;;;;21.15;35.44;103044.38;5079618;28;20066;-81
2022/04/28 00:29:18;;;;;;;3.13;2.38;;;;;;;21.10;35.32;103050.06;5097078;28;20052;-81
2022/04/28 00:31:44;;;;;;;4.63;2.60;;;;;;;21.05;35.39;103030.28;5099985;28;20031;-81
2022/04/28 00:34:10;;;;;;;4.13;2.40;;;;;;;21.09;35.47;103048.41;5097662;28;20046;-81
2022/04/28 00:36:36;;;;;;;3.20;2.33;;;;;;;21.10;35.49;103046.59;5098727;28;20040;-81
2022/04/28 00:39:02;;;;;;;3.78;2.70;;;;;;;21.07;35.48;103038.91;5078307;28;20160;-80
2022/04/28 00:41:28;;;;;;;2.90;2.30;;;;;;;21.07;35.36;103042.41;5076432;28;20028;-81
2022/04/28 00:43:54;;;;;;;3.05;2.50;;;;;;;20.93;35.62;103034.81;5065110;28;20363;-81
2022/04/28 00:46:21;;;;;;;3.00;2.40;;;;;;;20.92;35.65;103033.13;5077166;28;20032;-81
2022/04/28 00:51:32;;;;;;;3.25;2.45;;;;;;;21.02;35.59;103044.63;5078873;28;20062;-81
2022/04/28 00:54:02;;;;;;;2.95;2.40;;;;;;;21.01;35.48;103042.13;5080613;28;20775;-81
2022/04/28 00:56:30;;;;;;;2.47;2.28;;;;;;;20.99;35.64;103044.88;5074019;28;20485;-81
2022/04/28 00:58:59;;;;;;;3.47;2.38;;;;;;;20.91;35.36;103028.81;5064471;28;20067;-81
2022/04/28 01:01:24;;;;;;;3.63;2.28;;;;;;;20.99;35.55;103041.38;5080822;28;20055;-81
2022/04/28 01:03:50;;;;;;;3.33;2.50;;;;;;;20.95;35.69;103045.28;5097150;27;20047;-81
2022/04/28 01:06:16;;;;;;;4.35;2.70;;;;;;;20.91;35.59;103036.75;5078915;28;20036;-81
2022/04/28 01:08:41;;;;;;;2.95;2.30;;;;;;;20.93;35.63;103045.41;5062261;28;20051;-81
2022/04/28 01:11:08;;;;;;;4.35;2.53;;;;;;;20.86;35.68;103035.50;5081721;28;20035;-81
2022/04/28 01:13:44;;;;;;;3.75;2.63;;;;;;;20.93;35.65;103047.22;5078395;28;20039;-81
2022/04/28 01:16:15;;;;;;;2.92;2.30;;;;;;;20.95;35.42;103043.47;5078062;28;20036;-81
2022/04/28 01:18:41;;;;;;;4.53;2.60;;;;;;;20.94;35.56;103054.19;5087820;28;20095;-81
2022/04/28 01:21:07;;;;;;;3.95;2.60;;;;;;;20.91;35.71;103055.31;5081837;28;20039;-81
2022/04/28 01:23:35;;;;;;;2.55;2.25;;;;;;;20.89;35.55;103048.47;5070893;28;20036;-81
2022/04/28 01:26:02;;;;;;;4.20;2.38;;;;;;;20.92;35.43;103050.84;5077490;28;20783;-80
2022/04/28 01:28:30;;;;;;;2.50;2.30;;;;;;;20.90;35.61;103055.44;5093493;28;20052;-81
2022/04/28 01:30:55;;;;;;;3.20;2.45;;;;;;;20.84;35.58;103050.69;5094960;28;20047;-81
2022/04/28 01:33:21;;;;;;;3.90;2.55;;;;;;;20.93;35.41;103055.16;5070622;28;20027;-81
2022/04/28 01:35:47;;;;;;;2.92;2.30;;;;;;;20.85;35.54;103063.78;5098462;28;20054;-81
2022/04/28 01:38:13;;;;;;;2.63;2.25;;;;;;;20.89;35.53;103051.13;5079224;28;20413;-81
2022/04/28 01:40:38;;;;;;;2.58;2.33;;;;;;;20.79;35.95;103040.47;5076558;28;20717;-81
2022/04/28 01:43:05;;;;;;;3.50;2.33;;;;;;;20.89;35.51;103049.31;5078118;28;20036;-81
2022/04/28 01:45:31;;;;;;;4.03;2.58;;;;;;;20.88;35.63;103057.38;5082332;28;20046;-82
2022/04/28 01:48:13;;;;;;;2.90;2.20;;;;;;;20.86;35.60;103051.38;5078680;28;20035;-82
2022/04/28 01:57:06;;;;;;;2.47;2.25;;;;;;;20.76;35.58;103038.09;5031017;28;20088;-80
2022/04/28 01:59:58;;;;;;;3.00;2.20;;;;;;;20.81;35.67;103042.00;5060054;28;20047;-80
2022/04/28 02:02:41;;;;;;;4.18;2.72;;;;;;;20.78;35.68;103044.94;5079408;28;20423;-80
2022/04/28 02:05:09;;;;;;;4.40;2.08;;;;;;;20.79;35.56;103043.94;5076977;28;20042;-80
2022/04/28 02:07:35;;;;;;;3.25;2.42;;;;;;;20.77;35.63;103050.34;5098528;28;20055;-80
2022/04/28 02:10:02;;;;;;;2.65;2.40;;;;;;;20.80;35.55;103044.78;5077842;28;20555;-80
2022/04/28 02:12:28;;;;;;;3.13;2.40;;;;;;;20.75;35.73;103047.84;5079122;28;20704;-80
2022/04/28 02:15:12;;;;;;;3.00;2.25;;;;;;;20.71;35.51;103029.72;5092870;28;21738;-80
2022/04/28 02:18:04;;;;;;;3.30;2.40;;;;;;;20.76;35.68;103049.53;5057473;28;20055;-79
2022/04/28 02:20:30;;;;;;;2.40;2.20;;;;;;;20.77;35.62;103037.97;5087972;28;20043;-80
2022/04/28 02:22:55;;;;;;;3.83;2.30;;;;;;;20.77;35.62;103042.41;5078255;28;20487;-80
2022/04/28 02:25:22;;;;;;;2.97;2.20;;;;;;;20.75;35.59;103034.59;5073310;28;20040;-80
2022/04/28 02:27:48;;;;;;;3.03;2.03;;;;;;;20.67;35.67;103030.97;5096377;28;20474;-81
2022/04/28 02:30:13;;;;;;;4.22;2.47;;;;;;;20.73;35.68;103036.56;5095008;28;20059;-80
2022/04/28 02:35:28;;;;;;;3.17;2.28;;;;;;;20.71;35.69;103035.00;5079544;28;20038;-80
2022/04/28 02:37:54;;;;;;;3.20;2.47;;;;;;;20.72;35.54;103037.53;5084585;28;20043;-80
2022/04/28 02:40:20;;;;;;;2.00;1.90;;;;;;;20.70;35.61;103035.97;5084472;28;20035;-80
2022/04/28 02:42:45;;;;;;;3.00;2.22;;;;;;;20.73;35.77;103041.00;5066229;28;20130;-79
2022/04/28 02:45:11;;;;;;;2.40;2.20;;;;;;;20.51;35.65;103016.38;5082483;28;20035;-80
2022/04/28 02:47:44;;;;;;;4.20;2.22;;;;;;;20.71;35.69;103032.38;5081964;28;20046;-80
2022/04/28 02:50:11;;;;;;;3.75;2.50;;;;;;;20.70;35.62;103036.81;5080359;28;20047;-80
2022/04/28 02:52:39;;;;;;;3.22;2.03;;;;;;;20.68;35.71;103041.41;5097983;27;20434;-78
2022/04/28 02:55:09;;;;;;;2.60;1.90;;;;;;;20.63;35.70;103032.16;5086625;28;20027;-82
2022/04/28 02:57:36;;;;;;;2.42;2.20;;;;;;;20.68;35.87;103037.94;5081672;28;20050;-81
2022/04/28 03:00:05;;;;;;;2.80;1.73;;;;;;;20.61;35.80;103037.59;5097990;28;20533;-80
2022/04/28 03:02:38;;;;;;;2.83;2.17;;;;;;;20.64;35.95;103036.50;5083554;28;20039;-81
2022/04/28 03:05:04;;;;;;;3.22;2.50;;;;;;;20.67;35.64;103038.91;5077191;28;20905;-81
2022/04/28 03:12:59;;;;;;;2.90;2.10;;;;;;;20.65;35.76;103036.38;5093939;28;20052;-81
2022/04/28 03:15:29;;;;;;;3.50;2.40;;;;;;;20.54;35.68;103033.81;5083020;28;20047;-81
2022/04/28 03:17:54;;;;;;;3.22;2.30;;;;;;;20.63;35.73;103042.75;5063495;28;20040;-81
2022/04/28 03:20:20;;;;;;;3.10;2.30;;;;;;;20.57;35.69;103038.00;5098842;28;20032;-80
2022/04/28 03:22:46;;;;;;;2.60;2.08;;;;;;;20.65;35.65;103040.84;5065477;28;20036;-80
2022/04/28 03:25:12;;;;;;;2.30;2.10;;;;;;;20.63;35.66;103027.72;5089444;27;20066;-80
2022/04/28 03:27:38;;;;;;;3.28;2.15;;;;;;;20.60;35.71;103037.72;5079351;28;20051;-80
2022/04/28 03:30:04;;;;;;;2.47;2.25;;;;;;;20.50;35.78;103022.66;5078400;28;20489;-80
2022/04/28 03:32:44;;;;;;;3.47;2.13;;;;;;;20.48;35.81;103024.59;5076947;28;20043;-81
2022/04/28 03:35:11;;;;;;;2.78;2.30;;;;;;;20.55;35.76;103037.28;5065252;28;20028;-80
2022/04/28 03:37:36;;;;;;;2.35;2.10;;;;;;;20.58;35.75;103035.22;5100140;28;20739;-81
2022/04/28 03:40:03;;;;;;;3.80;2.33;;;;;;;20.59;35.69;103036.88;5069148;28;20888;-81
2022/04/28 03:42:30;;;;;;;3.65;2.28;;;;;;;20.56;35.79;103042.44;5078374;28;20036;-81
2022/04/28 03:44:57;;;;;;;2.63;2.13;;;;;;;20.56;35.76;103042.44;5066896;28;20039;-80
2022/04/28 03:47:23;;;;;;;2.83;2.20;;;;;;;20.46;35.96;103026.50;5092010;27;20704;-81
2022/04/28 03:49:49;;;;;;;2.40;2.20;;;;;;;20.51;35.79;103034.06;5076527;28;20728;-81
2022/04/28 03:52:15;;;;;;;3.85;2.20;;;;;;;20.54;35.84;103035.63;5051484;28;20058;-81
2022/04/28 03:54:41;;;;;;;2.15;1.95;;;;;;;20.49;35.83;103023.63;5083078;28;20032;-82
2022/04/28 03:57:07;;;;;;;3.08;2.20;;;;;;;20.51;35.80;103036.72;5072886;28;20076;-81
2022/04/28 03:59:34;;;;;;;2.25;1.83;;;;;;;20.47;35.86;103037.97;5063308;28;20564;-81
2022/04/28 04:02:00;;;;;;;2.67;2.20;;;;;;;20.43;35.97;103034.72;5076545;28;20051;-80
2022/04/28 04:04:26;;;;;;;3.00;2.00;;;;;;;20.49;35.93;103033.38;5069481;28;20090;-81
2022/04/28 04:07:04;;;;;;;2.95;2.05;;;;;;;20.50;35.66;103029.75;5085057;28;20031;-81
2022/04/28 04:09:55;;;;;;;3.13;2.00;;;;;;;20.47;35.82;103030.03;5086735;28;20429;-81
2022/04/28 04:12:33;;;;;;;2.58;2.13;;;;;;;20.47;35.78;103027.38;5079628;28;20044;-81
2022/04/28 04:15:02;;;;;;;2.92;2.10;;;;;;;20.49;35.79;103028.06;5078640;28;20097;-81
2022/04/28 04:17:48;;;;;;;2.33;2.13;;;;;;;20.52;35.64;103028.66;5055603;28;20058;-80
2022/04/28 04:20:14;;;;;;;2.88;2.20;;;;;;;20.51;35.74;103034.91;5079812;28;20036;-80
2022/04/28 04:22:42;;;;;;;2.40;2.17;;;;;;;20.52;35.79;103028.66;5082715;28;20031;-80
2022/04/28 04:25:08;;;;;;;3.55;2.05;;;;;;;20.46;35.85;103033.59;5065765;28;20476;-81
2022/04/28 04:27:34;;;;;;;2.92;1.90;;;;;;;20.48;35.85;103029.88;5073294;28;20897;-81
2022/04/28 04:33:24;;;;;;;2.65;2.30;;;;;;;20.50;35.66;103029.75;5018442;28;20072;-81
2022/04/28 04:35:50;;;;;;;2.47;1.90;;;;;;;20.47;35.74;103036.16;5031976;28;20040;-80
2022/04/28 04:38:16;;;;;;;3.22;2.30;;;;;;;20.48;35.75;103037.00;5060860;28;20519;-80
2022/04/28 04:40:42;;;;;;;2.55;2.13;;;;;;;20.41;35.94;103031.34;5078776;28;20039;-80
2022/04/28 04:43:13;;;;;;;2.30;2.10;;;;;;;20.44;35.81;103036.38;5062200;28;20039;-80
2022/04/28 04:45:44;;;;;;;4.75;2.10;;;;;;;20.31;35.77;103021.66;5080012;28;20035;-80
2022/04/28 04:48:23;;;;;;;2.42;2.10;;;;;;;20.48;35.94;103047.56;5091254;27;20085;-80
2022/04/28 04:50:52;;;;;;;2.13;1.90;;;;;;;20.27;35.95;103028.16;5049173;28;20040;-80
2022/04/28 04:53:22;;;;;;;2.60;2.17;;;;;;;20.46;35.88;103058.25;5077671;28;20525;-80
2022/04/28 04:55:48;;;;;;;4.10;2.35;;;;;;;20.49;35.87;103057.19;5058725;28;20050;-80
2022/04/28 04:58:15;;;;;;;2.47;2.05;;;;;;;20.46;35.82;103068.84;5076004;28;20130;-80
2022/04/28 05:00:41;;;;;;;2.70;2.50;;;;;;;20.44;35.89;103070.78;5054354;28;20035;-80
2022/04/28 05:03:29;;;;;;;3.20;2.15;;;;;;;20.47;35.87;103075.84;5095088;28;20035;-80
2022/04/28 05:05:55;;;;;;;2.97;2.15;;;;;;;20.48;35.86;103076.69;5099173;28;20048;-80
2022/04/28 05:08:27;;;;;;;2.55;2.20;;;;;;;20.47;35.84;103075.00;5081877;28;20036;-80
2022/04/28 05:10:58;;;;;;;3.67;2.10;;;;;;;20.50;35.88;103082.69;5082341;28;20208;-80
2022/04/28 05:13:24;;;;;;;2.75;1.90;;;;;;;20.47;35.86;103081.16;5094710;28;20036;-80
2022/04/28 05:15:53;;;;;;;1.92;1.77;;;;;;;20.48;35.88;103079.34;5097275;28;20481;-80
2022/04/28 05:18:23;;;;;;;2.80;2.17;;;;;;;20.65;35.40;103083.19;5078928;28;20088;-80
2022/04/28 05:20:52;;;;;;;2.33;2.05;;;;;;;20.97;35.24;103089.19;5080707;28;20050;-80
2022/04/28 05:23:41;;;;;;;2.58;2.03;;;;;;;21.58;34.29;103067.13;5095123;28;20142;-80
2022/04/28 05:26:25;;;;;;;2.35;1.92;;;;;;;22.42;33.15;103078.84;5098867;28;20682;-81
2022/04/28 05:29:25;;;;;;;2.30;2.05;;;;;;;22.77;32.60;103087.97;5091852;28;20134;-80
2022/04/28 05:32:05;;;;;;;2.42;1.88;;;;;;;22.70;32.73;103090.38;5078300;28;20081;-80
2022/04/28 05:34:49;;;;;;;2.42;2.13;;;;;;;22.57;33.14;103100.47;5096766;28;20060;-80
2022/04/28 05:37:20;;;;;;;;;;;;;;;22.45;33.55;103101.63;5096156;28;20485;-80
2022/04/28 05:39:46;;;;;;;2.03;1.83;;;;;;;22.21;33.66;103102.06;5097970;28;19915;-80
2022/04/28 05:42:11;;;;;;;3.05;2.25;;;;;;;22.14;34.02;103109.75;5095934;28;20054;-80
2022/04/28 05:47:22;;;;;;;2.80;1.88;;;;;;;21.89;34.26;103116.41;5082203;28;20040;-81
2022/04/28 05:49:48;;;;;;;4.07;2.30;;;;;;;21.78;34.45;103126.31;5066891;28;20042;-81
2022/04/28 05:52:14;;;;;;;3.17;2.03;;;;;;;21.78;34.77;103128.97;5076226;28;20031;-81
2022/04/28 05:54:40;;;;;;;2.35;1.90;;;;;;;21.66;34.76;103118.47;5075756;28;20066;-80
2022/04/28 05:57:07;;;;;;;2.72;1.98;;;;;;;21.70;34.49;103137.59;5078933;28;20746;-80
2022/04/28 05:59:33;;;;;;;2.22;2.00;;;;;;;21.66;34.79;103134.38;5073054;28;20060;-81
2022/04/28 06:02:17;;;;;;;2.33;1.92;;;;;;;21.69;34.88;103134.09;5098736;28;20544;-81
2022/04/28 06:04:42;;;;;;;2.28;2.00;;;;;;;21.88;34.55;103135.09;5056083;28;20027;-80
2022/04/28 06:07:10;;;;;;;2.35;1.80;;;;;;;22.28;34.23;103133.22;5078762;28;20044;-81
2022/04/28 06:09:40;;;;;;;2.55;1.85;;;;;;;22.57;33.70;103129.69;5073765;28;20109;-81
2022/04/28 06:12:06;;;;;;;4.30;1.85;;;;;;;22.50;33.34;103116.16;5079442;28;20043;-80
2022/04/28 06:14:50;;;;;;;3.05;2.10;;;;;;;22.53;33.46;103136.25;5079286;28;20074;-81
2022/04/28 06:17:36;;;;;;;2.28;1.60;;;;;;;22.31;33.88;103137.41;5080737;28;20036;-81
2022/04/28 06:20:03;;;;;;;1.80;1.70;;;;;;;22.25;34.25;103141.44;5078358;28;20046;-81
2022/04/28 06:22:47;;;;;;;2.05;1.80;;;;;;;22.06;34.12;103135.28;5094998;28;20051;-81
2022/04/28 06:25:14;;;;;;;1.80;1.48;;;;;;;22.00;34.36;103149.94;5080146;28;20032;-81
2022/04/28 06:27:41;;;;;;;1.95;1.80;;;;;;;22.01;34.25;103157.75;5069563;28;20169;-81
2022/04/28 06:30:07;;;;;;;2.03;1.83;;;;;;;21.90;34.72;103143.75;5079530;28;20040;-81
2022/04/28 06:32:33;;;;;;;2.70;1.80;;;;;;;21.95;34.71;103160.97;5078186;28;20043;-80
2022/04/28 06:35:18;;;;;;;3.30;1.80;;;;;;;21.83;34.69;103156.75;5067034;28;20044;-79
2022/04/28 06:37:44;;;;;;;2.97;1.90;;;;;;;21.80;34.84;103159.66;5080232;28;20033;-80
2022/04/28 06:40:12;;;;;;;2.53;1.75;;;;;;;21.77;35.06;103161.75;5074711;28;20527;-80
2022/04/28 06:42:44;;;;;;;4.97;2.00;;;;;;;21.61;35.13;103144.56;5074993;28;20044;-80
2022/04/28 06:45:22;;;;;;;2.95;1.90;;;;;;;21.66;35.44;103160.88;5093544;28;20042;-81
2022/04/28 06:48:01;;;;;;;1.58;1.48;;;;;;;21.66;35.26;103154.75;5094873;28;20039;-81
2022/04/28 06:50:39;;;;;;;2.05;1.58;;;;;;;21.60;35.36;103156.13;5095414;28;20044;-81
2022/04/28 06:53:37;;;;;;;1.65;1.33;;;;;;;21.61;35.42;103165.78;5093732;28;20541;-80
2022/04/28 06:56:07;;;;;;;2.20;1.58;;;;;;;21.58;35.15;103166.03;5063528;28;20031;-80
2022/04/28 06:58:42;;;;;;;2.83;1.70;;;;;;;21.58;35.37;103165.22;5077184;28;20050;-81
2022/04/28 07:01:14;;;;;;;2.60;1.85;;;;;;;21.53;35.30;103156.78;5078341;28;20035;-80
2022/04/28 07:03:40;;;;;;;3.63;1.80;;;;;;;21.57;35.16;103163.53;5040439;28;20040;-80
2022/04/28 07:06:07;;;;;;;2.35;1.80;;;;;;;21.51;35.30;103156.94;5081781;28;20038;-81
2022/04/28 07:08:33;;;;;;;1.90;1.80;;;;;;;21.47;35.45;103152.88;5077791;28;21027;-80
2022/04/28 07:10:58;;;;;;;3.50;1.77;;;;;;;21.58;35.21;103159.91;5097439;28;20061;-79
2022/04/28 07:13:25;;;;;;;2.72;1.60;;;;;;;21.61;35.33;103170.22;5074644;28;20287;-79
2022/04/28 07:20:23;;;;;;;1.80;1.70;;;;;;;21.52;35.22;103166.56;5034694;28;20172;-80
2022/04/28 07:22:48;;;;;;;2.33;2.13;;;;;;;21.70;34.97;103177.38;5071932;28;20044;-80
2022/04/28 07:25:15;;;;;;;2.35;1.70;;;;;;;21.97;34.75;103193.50;5038058;28;20032;-81
2022/04/28 07:27:41;;;;;;;2.72;1.70;;;;;;;22.17;34.21;103191.72;5086173;28;20043;-79
2022/04/28 07:30:18;;;;;;;2.08;1.65;;;;;;;22.37;34.03;103181.13;5079974;28;20162;-80
2022/04/28 07:32:44;;;;;;;2.78;1.95;;;;;;;22.31;33.94;103185.19;5067016;28;20040;-80
2022/04/28 07:35:17;;;;;;;2.70;1.70;;;;;;;22.31;34.39;103201.09;5102258;28;20042;-82
2022/04/28 07:38:02;;;;;;;3.72;1.67;;;;;;;22.30;34.59;103200.28;5097735;27;20054;-79
2022/04/28 07:40:43;;;;;;;3.30;1.60;;;;;;;22.53;34.43;103207.94;5090740;27;20028;-82
2022/04/28 07:43:14;;;;;;;4.68;1.80;;;;;;;22.54;34.49;103207.81;5086055;28;20031;-80
2022/04/28 07:45:41;;;;;;;3.35;1.40;;;;;;;22.72;34.50;103209.75;5070357;28;20039;-80
2022/04/28 07:48:12;;;;;;;3.83;1.80;;;;;;;22.76;34.53;103214.63;5082148;28;20066;-80
2022/04/28 07:50:37;;;;;;;1.33;1.23;;;;;;;22.80;34.47;103208.09;5094953;28;20405;-80
2022/04/28 07:53:19;;;;;;;3.05;1.48;;;;;;;22.78;34.34;103215.31;5080897;28;20135;-79
2022/04/28 07:56:10;;;;;;;1.85;1.45;;;;;;;22.79;34.37;103217.00;5040764;28;20044;-80
2022/04/28 07:58:31;;;;;;;4.15;1.77;;;;;;;22.89;34.32;103212.56;5080941;28;20036;-80
2022/04/28 08:01:24;;;;;;;3.88;1.50;;;;;;;22.45;34.78;103195.38;5046227;28;20386;-82
2022/04/28 08:03:50;;;;;;;3.95;1.65;;;;;;;22.72;34.76;103207.94;5064478;28;20543;-80
2022/04/28 08:06:16;;;;;;;4.00;2.00;;;;;;;22.75;34.71;103204.16;5059834;28;20023;-79
2022/04/28 08:08:42;;;;;;;2.90;1.65;;;;;;;22.83;34.77;103221.09;5085896;28;20028;-80
2022/04/28 08:11:08;;;;;;;4.03;1.73;;;;;;;22.45;34.70;103152.91;5072498;27;20113;-81
2022/04/28 08:13:35;;;;;;;3.25;1.60;;;;;;;22.84;34.59;103212.16;5067122;28;20669;-79
2022/04/28 08:16:17;;;;;;;3.00;1.77;;;;;;;22.85;34.63;103213.81;5101662;28;20046;-80
2022/04/28 08:18:45;;;;;;;2.47;1.63;;;;;;;23.01;34.50;103236.31;5045928;28;20036;-79
2022/04/28 08:21:29;;;;;;;2.42;1.60;;;;;;;22.81;34.70;103228.34;5096072;28;20103;-81
2022/04/28 08:23:55;;;;;;;2.40;1.65;;;;;;;22.51;34.98;103197.47;5053158;28;20462;-81
2022/04/28 08:26:22;;;;;;;3.75;1.88;;;;;;;22.63;35.04;103231.84;5084676;28;20039;-81
2022/04/28 08:28:48;;;;;;;4.63;1.50;;;;;;;22.66;35.14;103231.56;5043512;28;20041;-82
2022/04/28 08:31:14;;;;;;;3.30;1.55;;;;;;;22.78;35.30;103222.47;5091548;28;20028;-80
2022/04/28 08:33:40;;;;;;;3.63;1.75;;;;;;;22.96;35.09;103230.56;5061315;28;20039;-80
2022/04/28 08:36:07;;;;;;;4.85;1.98;;;;;;;22.89;34.96;103212.56;5074259;28;20036;-82
2022/04/28 08:38:36;;;;;;;3.20;1.57;;;;;;;22.98;35.00;103224.16;5072582;27;20032;-84
2022/04/28 08:41:04;;;;;;;3.60;1.58;;;;;;;22.86;34.74;103234.09;5094896;28;20031;-84
2022/04/28 08:43:50;;;;;;;4.18;1.75;;;;;;;22.69;35.33;103221.50;5062761;27;20096;-84
2022/04/28 08:48:59;;;;;;;5.30;1.63;;;;;;;22.62;34.87;103220.38;5056097;28;20840;-82
2022/04/28 08:51:26;;;;;;;3.45;1.63;;;;;;;22.84;34.83;103229.91;5050743;28;20028;-80
2022/04/28 08:53:55;;;;;;;2.87;1.60;;;;;;;22.98;34.92;103241.91;5056233;27;20035;-79
2022/04/28 08:56:25;;;;;;;4.38;1.75;;;;;;;22.82;34.79;103214.13;5093712;28;20042;-78
2022/04/28 08:58:55;;;;;;;4.25;1.70;;;;;;;23.02;34.82;103238.84;5027474;28;20028;-80
2022/04/28 09:01:27;;;;;;;4.10;1.75;;;;;;;23.01;35.05;103234.50;5066506;28;20556;-78
2022/04/28 09:04:12;;;;;;;2.33;1.33;;;;;;;23.10;35.15;103236.28;5101081;28;20073;-79
2022/04/28 09:06:57;;;;;;;3.45;1.70;;;;;;;23.11;35.01;103251.25;5055385;28;21293;-80
2022/04/28 09:09:41;;;;;;;2.58;1.73;;;;;;;23.16;35.23;103243.69;5098729;28;20480;-80
2022/04/28 09:12:26;;;;;;;5.32;2.50;;;;;;;23.14;35.03;103239.47;5070171;27;20127;-80
2022/04/28 09:15:24;;;;;;;3.40;1.90;;;;;;;23.18;35.05;103254.19;5081701;28;20034;-80
2022/04/28 09:17:57;;;;;;;2.25;1.38;;;;;;;23.11;35.23;103237.13;5040837;28;20040;-81
2022/04/28 09:20:23;;;;;;;1.35;1.25;;;;;;;23.25;34.81;103257.09;5082524;28;20039;-79
2022/04/28 09:22:53;;;;;;;3.92;1.83;;;;;;;22.77;34.94;103184.44;5065760;28;20036;-80
2022/04/28 09:25:22;;;;;;;5.15;2.25;;;;;;;23.25;34.79;103262.41;5082462;28;20019;-80
2022/04/28 09:27:54;;;;;;;2.00;1.48;;;;;;;23.24;34.86;103268.72;5063215;27;20036;-80
2022/04/28 09:30:22;;;;;;;2.92;1.95;;;;;;;23.13;34.79;103238.66;5081319;28;20039;-81
2022/04/28 09:33:18;;;;;;;3.42;1.90;;;;;;;22.99;34.82;103212.56;5050820;27;20567;-80
2022/04/28 09:36:03;;;;;;;3.20;1.90;;;;;;;23.21;34.96;103244.09;5102613;28;20116;-79
2022/04/28 09:38:53;;;;;;;3.03;1.77;;;;;;;23.29;35.05;103256.66;5037029;28;20047;-79
2022/04/28 09:44:05;;;;;;;2.95;1.92;;;;;;;23.40;34.86;103251.19;5046540;28;20482;-80
2022/04/28 09:46:38;;;;;;;2.85;1.90;;;;;;;23.34;34.90;103248.25;5080841;28;20051;-80
2022/04/28 09:49:05;;;;;;;3.10;1.83;;;;;;;23.11;34.65;103240.63;5048454;27;21117;-82
2022/04/28 09:51:39;;;;;;;4.00;2.00;;;;;;;23.35;34.64;103269.41;5063297;28;20785;-80
2022/04/28 09:54:17;;;;;;;2.95;1.58;;;;;;;23.37;34.55;103267.44;5096644;28;20051;-81
2022/04/28 09:56:51;;;;;;;2.97;1.70;;;;;;;23.31;34.52;103244.06;5028754;28;20598;-81
2022/04/28 09:59:28;;;;;;;3.58;1.95;;;;;;;23.44;34.75;103259.69;5084250;28;20135;-80
2022/04/28 10:01:54;;;;;;;3.15;1.90;;;;;;;23.45;34.52;103264.03;5053406;28;20768;-80
2022/04/28 10:04:20;;;;;;;2.90;1.90;;;;;;;23.48;34.50;103266.41;5084589;28;20055;-80
2022/04/28 10:07:06;;;;;;;3.78;2.00;;;;;;;23.47;34.55;103270.88;5068754;27;20116;-80
2022/04/28 10:09:35;;;;;;;5.15;2.00;;;;;;;23.45;34.32;103259.53;5078618;28;20079;-81
2022/04/28 10:12:14;;;;;;;2.00;1.70;;;;;;;23.38;34.44;103244.34;5053690;28;20054;-79
2022/04/28 10:14:54;;;;;;;2.95;1.80;;;;;;;23.47;34.39;103260.25;5076163;28;20220;-79
2022/04/28 10:17:26;;;;;;;2.25;1.85;;;;;;;23.53;34.37;103261.50;5050374;28;20035;-80
2022/04/28 10:19:57;;;;;;;2.13;1.70;;;;;;;23.51;34.23;103264.28;5094027;28;20040;-80
2022/04/28 10:22:43;;;;;;;4.57;1.95;;;;;;;23.52;34.56;103254.50;5031882;27;20444;-81
2022/04/28 10:34:15;;;;;;;2.42;1.90;;;;;;;23.60;34.30;103267.09;5086335;28;20044;-80
2022/04/28 10:36:56;;;;;;;2.75;1.70;;;;;;;23.61;34.36;103264.28;5083949;28;20405;-81
2022/04/28 10:39:42;;;;;;;2.53;1.70;;;;;;;23.61;34.27;103263.44;5080083;28;20083;-80
2022/04/28 10:42:26;;;;;;;2.47;2.00;;;;;;;23.56;34.15;103244.41;5102085;28;20104;-80
2022/04/28 10:45:04;;;;;;;2.58;1.83;;;;;;;23.60;34.01;103265.28;5072468;28;20521;-83
2022/04/28 10:47:35;;;;;;;2.88;1.80;;;;;;;23.61;34.24;103266.09;5072517;28;20476;-80
2022/04/28 10:50:01;;;;;;;4.18;1.90;;;;;;;23.62;34.24;103273.09;5056241;28;20063;-80
2022/04/28 10:52:27;;;;;;;2.58;1.60;;;;;;;23.60;34.18;103265.28;5101018;28;20038;-80
2022/04/28 10:54:54;;;;;;;3.33;1.98;;;;;;;23.61;33.90;103264.28;5061123;28;20035;-81
2022/04/28 10:57:29;;;;;;;3.90;2.15;;;;;;;23.42;34.53;103272.31;5101215;28;20096;-81
2022/04/28 10:59:55;;;;;;;4.57;2.17;;;;;;;23.36;34.64;103268.41;5051833;28;20036;-82
2022/04/28 11:02:21;;;;;;;4.93;2.30;;;;;;;23.30;34.55;103263.66;5098510;28;20032;-82
2022/04/28 11:04:52;;;;;;;2.42;1.80;;;;;;;23.23;35.06;103275.00;5056408;28;20802;-81
2022/04/28 11:07:24;;;;;;;3.88;2.03;;;;;;;23.09;35.00;103260.34;5086020;28;20127;-81
2022/04/28 11:09:55;;;;;;;3.15;2.00;;;;;;;23.18;35.15;103288.75;5063772;27;20036;-81
2022/04/28 11:12:22;;;;;;;2.80;1.80;;;;;;;23.07;34.82;103270.28;5104083;28;20039;-81
2022/04/28 11:15:02;;;;;;;3.03;1.70;;;;;;;23.14;35.13;103284.66;5083826;27;20028;-82
2022/04/28 11:17:30;;;;;;;4.13;2.10;;;;;;;23.18;34.76;103283.44;5100106;28;20044;-81
2022/04/28 11:19:59;;;;;;;2.55;2.00;;;;;;;23.08;34.71;103274.63;5078188;27;20047;-81
2022/04/28 11:22:27;;;;;;;6.07;1.90;;;;;;;22.88;34.74;103241.94;5097373;28;20161;-82
2022/04/28 11:24:52;;;;;;;2.63;1.88;;;;;;;23.08;35.15;103272.81;5050719;27;20543;-82
2022/04/28 11:27:30;;;;;;;3.72;1.80;;;;;;;23.01;35.00;103273.53;5078764;28;20104;-81
2022/04/28 11:30:19;;;;;;;3.88;2.00;;;;;;;23.00;34.82;103272.69;5070865;28;20099;-82
2022/04/28 11:32:51;;;;;;;1.73;1.60;;;;;;;22.98;34.84;103268.47;5029206;28;20044;-81
2022/04/28 11:35:18;;;;;;;1.92;1.73;;;;;;;23.04;35.16;103286.53;5058226;28;20048;-81
2022/04/28 11:37:43;;;;;;;2.92;1.80;;;;;;;23.08;34.64;103285.25;5017349;28;20063;-82
2022/04/28 11:40:13;;;;;;;2.08;1.75;;;;;;;23.05;34.61;103291.69;5064372;28;20072;-81
2022/04/28 11:42:41;;;;;;;2.42;1.88;;;;;;;23.02;35.01;103277.84;5027092;28;20470;-81
2022/04/28 11:45:07;;;;;;;3.95;2.10;;;;;;;23.00;34.76;103288.63;5069758;28;20048;-82
2022/04/28 11:47:41;;;;;;;2.15;1.65;;;;;;;23.02;34.69;103289.31;5075582;28;20102;-82
2022/04/28 11:50:07;;;;;;;2.67;2.10;;;;;;;23.00;34.68;103288.63;5042826;28;20445;-83
2022/04/28 11:52:34;;;;;;;3.67;2.22;;;;;;;22.94;34.84;103275.88;5038215;28;20048;-82
2022/04/28 11:55:08;;;;;;;2.97;2.00;;;;;;;22.98;34.75;103295.03;5034053;28;20036;-83
2022/04/28 11:57:39;;;;;;;4.35;1.88;;;;;;;22.97;34.86;103286.22;5064480;28;20056;-83
2022/04/28 12:00:12;;;;;;;3.15;2.00;;;;;;;22.55;34.70;103230.72;5030763;28;20043;-83
2022/04/28 12:02:39;;;;;;;3.25;1.80;;;;;;;22.95;34.90;103292.66;5062533;28;20047;-83
2022/04/28 12:05:25;;;;;;;2.42;1.88;;;;;;;22.92;34.96;103291.97;5024830;28;20151;-82
2022/04/28 12:07:52;;;;;;;3.13;1.98;;;;;;;22.87;34.59;103280.94;5056139;28;20041;-82
2022/04/28 12:16:07;;;;;;;5.10;2.50;;;;;;;22.91;35.00;103292.13;5032968;28;20517;-82
2022/04/28 12:21:24;;;;;;;2.92;1.65;;;;;;;22.86;34.97;103287.22;5058702;28;20047;-82
2022/04/28 12:23:58;;;;;;;2.30;1.60;;;;;;;22.89;34.52;103286.09;5026357;28;20683;-82
2022/04/28 12:26:25;;;;;;;3.10;1.73;;;;;;;22.73;34.80;103261.91;5061221;28;20040;-81
2022/04/28 12:28:52;;;;;;;1.63;1.48;;;;;;;22.89;35.00;103286.09;5031259;28;20207;-80
2022/04/28 12:31:36;;;;;;;3.63;1.77;;;;;;;22.87;34.72;103288.91;5103126;28;20043;-81